KC9ETS-13 Weather Reports


Display with metric or nautical units.
time (UTC)temp
F
wind
direction
speed
MPH
gust
MPH
rain 1hr
in
rain 24hr
in
rain mn
in
humidity
%
barometer
mb
20220927204416 75 226 1.0 5.0 0.00 0.00 0.00 27 1020.3
20220927203916 75 13 4.0 10.0 0.00 0.00 0.00 27 1020.6
20220927203415 75 240 3.0 7.0 0.00 0.00 0.00 27 1021.0
20220927202913 75 279 3.0 5.0 0.00 0.00 0.00 26 1020.6
20220927202413 75 7 7.0 10.0 0.00 0.00 0.00 25 1020.6
20220927201912 75 20 3.0 10.0 0.00 0.00 0.00 26 1020.6
20220927201411 75 28 2.0 5.0 0.00 0.00 0.00 26 1020.6
20220927200910 75 328 2.0 3.0 0.00 0.00 0.00 26 1020.6
20220927200409 75 29 7.0 12.0 0.00 0.00 0.00 26 1020.6
20220927195909 75 0 2.0 5.0 0.00 0.00 0.00 26 1020.3
20220927195408 75 333 5.0 10.0 0.00 0.00 0.00 26 1020.6
20220927194908 75 50 9.0 15.0 0.00 0.00 0.00 25 1020.6
20220927194407 75 13 7.0 17.0 0.00 0.00 0.00 25 1020.6
20220927193907 75 130 2.0 5.0 0.00 0.00 0.00 27 1020.6
20220927193407 75 339 6.0 7.0 0.00 0.00 0.00 27 1020.6
20220927192906 75 262 2.0 5.0 0.00 0.00 0.00 27 1020.6
20220927192406 75 327 0.0 0.0 0.00 0.00 0.00 26 1020.6
20220927191904 75 247 4.0 7.0 0.00 0.00 0.00 27 1020.6
20220927191404 75 68 3.0 5.0 0.00 0.00 0.00 27 1020.6
20220927190904 75 247 7.0 10.0 0.00 0.00 0.00 27 1021.0
20220927190401 75 334 7.0 10.0 0.00 0.00 0.00 27 1020.6
20220927185902 75 6 2.0 5.0 0.00 0.00 0.00 27 1021.0
20220927185400 74 35 5.0 5.0 0.00 0.00 0.00 27 1021.0
20220927184859 74 6 3.0 7.0 0.00 0.00 0.00 27 1021.0
20220927184359 74 32 3.0 5.0 0.00 0.00 0.00 27 1021.0
20220927183857 74 84 8.0 12.0 0.00 0.00 0.00 28 1021.0
20220927183357 74 169 2.0 5.0 0.00 0.00 0.00 27 1021.0
20220927182855 73 2 4.0 7.0 0.00 0.00 0.00 28 1021.0
20220927182353 73 21 8.0 10.0 0.00 0.00 0.00 27 1021.0
20220927181851 73 167 4.0 7.0 0.00 0.00 0.00 29 1021.4
20220927181349 73 325 8.0 12.0 0.00 0.00 0.00 28 1021.4
20220927180849 73 350 3.0 5.0 0.00 0.00 0.00 31 1021.4
20220927180347 73 149 3.0 5.0 0.00 0.00 0.00 30 1021.0
20220927175845 73 351 10.0 12.0 0.00 0.00 0.00 29 1021.4
20220927175345 73 350 7.0 10.0 0.00 0.00 0.00 31 1021.7
20220927174844 73 26 12.0 15.0 0.00 0.00 0.00 32 1021.7
20220927174342 72 319 3.0 5.0 0.00 0.00 0.00 31 1021.7
20220927173841 72 41 6.0 10.0 0.00 0.00 0.00 32 1022.1
20220927173341 72 139 0.0 3.0 0.00 0.00 0.00 33 1021.7
20220927172841 72 336 8.0 17.0 0.00 0.00 0.00 32 1021.7
20220927172340 72 251 3.0 5.0 0.00 0.00 0.00 32 1021.7
20220927171840 71 202 0.0 0.0 0.00 0.00 0.00 33 1021.7
20220927171340 71 18 6.0 10.0 0.00 0.00 0.00 34 1021.7
20220927170839 71 323 1.0 3.0 0.00 0.00 0.00 34 1021.7
20220927170337 71 201 0.0 0.0 0.00 0.00 0.00 35 1022.1
20220927165837 71 250 0.0 5.0 0.00 0.00 0.00 36 1021.7
20220927165337 71 267 3.0 7.0 0.00 0.00 0.00 35 1022.1
20220927164836 70 54 6.0 15.0 0.00 0.00 0.00 36 1022.1
20220927164336 70 15 1.0 3.0 0.00 0.00 0.00 37 1022.1
20220927163833 70 38 1.0 5.0 0.00 0.00 0.00 36 1022.1
20220927163331 70 335 0.0 3.0 0.00 0.00 0.00 36 1022.1
20220927162829 70 173 2.0 5.0 0.00 0.00 0.00 35 1022.1
20220927162328 70 313 0.0 0.0 0.00 0.00 0.00 35 1022.1
20220927161826 70 257 3.0 5.0 0.00 0.00 0.00 35 1021.7
20220927161324 70 328 3.0 5.0 0.00 0.00 0.00 35 1022.1
20220927160823 69 345 3.0 5.0 0.00 0.00 0.00 37 1021.7
20220927160320 69 231 0.0 0.0 0.00 0.00 0.00 41 1022.1
20220927155818 68 242 0.0 0.0 0.00 0.00 0.00 40 1021.7
20220927155318 68 218 0.0 0.0 0.00 0.00 0.00 42 1022.1
20220927154817 68 145 0.0 0.0 0.00 0.00 0.00 41 1022.1
20220927154317 67 70 0.0 0.0 0.00 0.00 0.00 43 1022.1
20220927153816 67 252 1.0 5.0 0.00 0.00 0.00 43 1022.1
20220927153316 67 244 0.0 0.0 0.00 0.00 0.00 44 1022.1
20220927152815 66 190 0.0 0.0 0.00 0.00 0.00 43 1022.1
20220927152314 66 64 0.0 0.0 0.00 0.00 0.00 45 1022.1
20220927151811 65 239 0.0 0.0 0.00 0.00 0.00 45 1022.1
20220927151311 65 248 7.0 10.0 0.00 0.00 0.00 45 1022.1
20220927150810 65 232 0.0 0.0 0.00 0.00 0.00 46 1022.1
20220927150309 64 237 0.0 3.0 0.00 0.00 0.00 47 1022.1
20220927145809 64 236 1.0 5.0 0.00 0.00 0.00 47 1022.1
20220927145308 64 204 0.0 3.0 0.00 0.00 0.00 48 1021.7
20220927144807 63 197 0.0 3.0 0.00 0.00 0.00 48 1022.1
20220927144306 63 343 0.0 0.0 0.00 0.00 0.00 49 1021.7
20220927143805 63 355 0.0 0.0 0.00 0.00 0.00 48 1021.7
20220927143304 62 214 3.0 5.0 0.00 0.00 0.00 50 1021.7
20220927142804 62 151 0.0 0.0 0.00 0.00 0.00 50 1021.7
20220927142305 62 19 1.0 3.0 0.00 0.00 0.00 49 1021.4
20220927141801 61 215 3.0 5.0 0.00 0.00 0.00 50 1021.4
20220927141300 60 137 0.0 0.0 0.00 0.00 0.00 52 1021.4
20220927140759 59 189 0.0 0.0 0.00 0.00 0.00 53 1021.7
20220927140258 57 197 0.0 0.0 0.00 0.00 0.00 54 1021.7
20220927135757 56 208 0.0 0.0 0.00 0.00 0.00 58 1021.4
20220927135257 54 209 0.0 0.0 0.00 0.00 0.00 58 1021.0
20220927134756 52 193 0.0 0.0 0.00 0.00 0.00 62 1021.4
20220927134256 50 225 0.0 0.0 0.00 0.00 0.00 65 1021.0
20220927133755 48 211 0.0 0.0 0.00 0.00 0.00 68 1021.4
20220927133255 47 215 0.0 0.0 0.00 0.00 0.00 74 1021.0
20220927132755 46 208 0.0 0.0 0.00 0.00 0.00 83 1021.4
20220927132253 44 213 0.0 0.0 0.00 0.00 0.00 87 1021.4
20220927131752 44 171 0.0 0.0 0.00 0.00 0.00 96 1021.0
20220927131251 43 167 0.0 0.0 0.00 0.00 0.00 97 1021.0
20220927130751 42 163 0.0 0.0 0.00 0.00 0.00 97 1021.0
20220927130250 41 180 0.0 0.0 0.00 0.00 0.00 97 1021.0
20220927125749 40 183 0.0 0.0 0.00 0.00 0.00 97 1021.0
20220927125249 39 186 0.0 0.0 0.00 0.00 0.00 97 1021.0
20220927124748 38 187 0.0 0.0 0.00 0.00 0.00 97 1021.0
20220927124248 38 187 0.0 0.0 0.00 0.00 0.00 97 1021.0
20220927123746 37 187 0.0 0.0 0.00 0.00 0.00 97 1021.0
20220927123245 37 187 0.0 0.0 0.00 0.00 0.00 97 1021.0
20220927122745 37 187 0.0 0.0 0.00 0.00 0.00 97 1021.0
20220927122244 36 187 0.0 0.0 0.00 0.00 0.00 97 1021.0
20220927121744 36 187 0.0 0.0 0.00 0.00 0.00 97 1021.0
20220927121243 36 187 0.0 0.0 0.00 0.00 0.00 97 1021.0
20220927120743 36 186 0.0 0.0 0.00 0.00 0.00 97 1020.6
20220927120242 36 186 0.0 0.0 0.00 0.00 0.00 97 1020.6
20220927115740 36 186 0.0 0.0 0.00 0.00 0.00 97 1020.6
20220927115240 36 186 0.0 0.0 0.00 0.00 0.00 97 1020.3
20220927114739 36 186 0.0 0.0 0.00 0.00 0.00 97 1020.3
20220927114237 36 186 0.0 0.0 0.00 0.00 0.00 97 1020.3
20220927113736 36 186 0.0 0.0 0.00 0.00 0.00 97 1020.3
20220927113236 36 192 0.0 0.0 0.00 0.00 0.00 97 1020.3
20220927112735 36 188 0.0 0.0 0.00 0.00 0.00 97 1020.3
20220927112234 36 188 0.0 0.0 0.00 0.00 0.00 97 1020.3
20220927111734 36 189 0.0 0.0 0.00 0.00 0.00 97 1019.9
20220927111233 36 189 0.0 0.0 0.00 0.00 0.00 96 1019.9
20220927110733 36 189 0.0 0.0 0.00 0.00 0.00 96 1019.9
20220927110228 36 189 0.0 0.0 0.00 0.00 0.00 96 1019.9
20220927105729 36 189 0.0 0.0 0.00 0.00 0.00 96 1019.6
20220927105228 36 189 0.0 0.0 0.00 0.00 0.00 96 1019.6
20220927104728 36 189 0.0 0.0 0.00 0.00 0.00 96 1019.6
20220927104226 37 189 0.0 0.0 0.00 0.00 0.00 96 1019.6
20220927103724 37 189 0.0 0.0 0.00 0.00 0.00 96 1019.6
20220927103223 37 189 0.0 0.0 0.00 0.00 0.00 96 1019.6
20220927102723 37 189 0.0 0.0 0.00 0.00 0.00 96 1019.6
20220927102223 37 189 0.0 0.0 0.00 0.00 0.00 96 1019.3
20220927101722 37 189 0.0 0.0 0.00 0.00 0.00 96 1019.6
20220927101220 37 189 0.0 0.0 0.00 0.00 0.00 96 1019.3
20220927100719 37 189 0.0 0.0 0.00 0.00 0.00 96 1019.6
20220927100219 37 189 0.0 0.0 0.00 0.00 0.00 96 1019.3
20220927095719 37 189 0.0 0.0 0.00 0.00 0.00 96 1019.3
20220927095217 37 189 0.0 0.0 0.00 0.00 0.00 96 1019.3
20220927094716 37 189 0.0 0.0 0.00 0.00 0.00 96 1019.3
20220927094215 37 189 0.0 0.0 0.00 0.00 0.00 95 1019.3
20220927093714 37 189 0.0 0.0 0.00 0.00 0.00 96 1019.3
20220927093213 37 189 0.0 0.0 0.00 0.00 0.00 95 1019.3
20220927092712 37 189 0.0 0.0 0.00 0.00 0.00 95 1019.3
20220927092212 37 190 0.0 0.0 0.00 0.00 0.00 95 1019.3
20220927091711 37 190 0.0 0.0 0.00 0.00 0.00 95 1019.3
20220927091210 37 190 0.0 0.0 0.00 0.00 0.00 95 1019.3
20220927090709 38 188 0.0 0.0 0.00 0.00 0.00 95 1018.9
20220927090208 38 189 0.0 0.0 0.00 0.00 0.00 95 1018.9
20220927085707 38 189 0.0 0.0 0.00 0.00 0.00 95 1018.9
20220927085205 38 188 0.0 0.0 0.00 0.00 0.00 95 1019.3
20220927084704 38 188 0.0 0.0 0.00 0.00 0.00 95 1019.3
20220927084203 38 188 0.0 0.0 0.00 0.00 0.00 95 1018.9
20220927083702 38 188 0.0 0.0 0.00 0.00 0.00 94 1019.3
20220927083200 38 188 0.0 0.0 0.00 0.00 0.00 94 1018.9
20220927082659 38 188 0.0 0.0 0.00 0.00 0.00 94 1018.9
20220927082158 38 188 0.0 0.0 0.00 0.00 0.00 94 1018.9
20220927081657 38 188 0.0 0.0 0.00 0.00 0.00 94 1019.3
20220927081157 38 188 0.0 0.0 0.00 0.00 0.00 94 1018.9
20220927080656 39 188 0.0 0.0 0.00 0.00 0.00 93 1018.9
20220927080155 39 188 0.0 0.0 0.00 0.00 0.00 93 1018.9
20220927075655 39 188 0.0 0.0 0.00 0.00 0.00 93 1018.9
20220927075154 39 188 0.0 0.0 0.00 0.00 0.00 93 1018.9
20220927074654 39 188 0.0 0.0 0.00 0.00 0.00 93 1019.3
20220927074153 39 188 0.0 0.0 0.00 0.00 0.00 93 1019.3
20220927073651 39 188 0.0 0.0 0.00 0.00 0.00 93 1019.3
20220927073151 39 188 0.0 0.0 0.00 0.00 0.00 92 1019.3
20220927072649 39 188 0.0 0.0 0.00 0.00 0.00 92 1019.3
20220927072149 39 188 0.0 0.0 0.00 0.00 0.00 92 1019.3
20220927071648 39 188 0.0 0.0 0.00 0.00 0.00 92 1019.6
20220927071146 39 188 0.0 0.0 0.00 0.00 0.00 92 1019.3
20220927070646 39 188 0.0 0.0 0.00 0.00 0.00 91 1019.3
20220927070144 40 188 0.0 0.0 0.00 0.00 0.00 91 1019.3
20220927065644 40 188 0.0 0.0 0.00 0.00 0.00 91 1019.3
20220927065143 40 188 0.0 0.0 0.00 0.00 0.00 91 1019.6
20220927064641 40 188 0.0 0.0 0.00 0.00 0.00 90 1019.3
20220927064140 40 188 0.0 0.0 0.00 0.00 0.00 90 1019.3
20220927063639 40 189 0.0 0.0 0.00 0.00 0.00 90 1019.3
20220927063137 40 187 0.0 0.0 0.00 0.00 0.00 90 1019.3
20220927062637 40 187 0.0 0.0 0.00 0.00 0.00 90 1019.3
20220927062135 40 178 0.0 0.0 0.00 0.00 0.00 90 1019.3
20220927061635 41 187 0.0 0.0 0.00 0.00 0.00 90 1019.3
20220927061134 41 185 0.0 0.0 0.00 0.00 0.00 89 1019.3
20220927060635 41 184 0.0 0.0 0.00 0.00 0.00 89 1019.3
20220927060133 41 184 0.0 0.0 0.00 0.00 0.00 89 1019.3
20220927055631 41 179 0.0 0.0 0.00 0.00 0.00 89 1019.3
20220927055131 41 196 0.0 0.0 0.00 0.00 0.00 89 1019.3
20220927054631 41 184 0.0 0.0 0.00 0.00 0.00 89 1019.3
20220927054131 41 184 0.0 0.0 0.00 0.00 0.00 88 1019.6
20220927053631 41 178 0.0 0.0 0.00 0.00 0.00 88 1019.3
20220927053130 41 188 0.0 0.0 0.00 0.00 0.00 88 1019.6
20220927052628 42 186 0.0 0.0 0.00 0.00 0.00 88 1019.3
20220927052128 42 193 0.0 0.0 0.00 0.00 0.00 88 1019.3
20220927051628 42 179 0.0 0.0 0.00 0.00 0.00 88 1019.6
20220927051128 42 191 0.0 0.0 0.00 0.00 0.00 87 1019.3
20220927050627 42 191 0.0 0.0 0.00 0.00 0.00 87 1019.3
20220927050127 42 193 0.0 0.0 0.00 0.00 0.00 87 1019.6
20220927045626 42 200 0.0 0.0 0.00 0.00 0.00 86 1019.6
20220927045126 43 188 0.0 0.0 0.00 0.00 0.00 86 1019.3
20220927044624 43 188 0.0 0.0 0.00 0.00 0.00 86 1019.3
20220927044124 43 183 0.0 0.0 0.00 0.00 0.00 86 1019.3
20220927043623 43 190 0.0 0.0 0.00 0.00 0.00 85 1019.3
20220927043123 43 188 0.0 0.0 0.00 0.00 0.00 85 1019.3
20220927042622 44 188 0.0 0.0 0.00 0.00 0.00 85 1019.3
20220927042121 44 182 0.0 0.0 0.00 0.00 0.00 84 1018.9
20220927041620 44 172 0.0 0.0 0.00 0.00 0.00 84 1019.3
20220927041118 44 187 0.0 0.0 0.00 0.00 0.00 83 1019.3
20220927040617 45 188 0.0 0.0 0.00 0.00 0.00 83 1019.3
20220927040116 45 179 0.0 0.0 0.00 0.00 0.00 82 1019.3
20220927035617 45 183 0.0 0.0 0.00 0.00 0.00 82 1019.3
20220927035116 45 203 0.0 0.0 0.00 0.00 0.00 82 1019.3
20220927034616 46 193 0.0 0.0 0.00 0.00 0.00 80 1019.3
20220927034114 46 186 0.0 0.0 0.00 0.00 0.00 80 1019.3
20220927033613 46 183 0.0 0.0 0.00 0.00 0.00 79 1019.3
20220927033111 46 192 0.0 0.0 0.00 0.00 0.00 80 1018.9
20220927032610 46 127 0.0 0.0 0.00 0.00 0.00 79 1018.9
20220927032109 46 187 0.0 0.0 0.00 0.00 0.00 78 1018.9
20220927031609 47 192 0.0 0.0 0.00 0.00 0.00 78 1018.9
20220927031108 47 187 0.0 0.0 0.00 0.00 0.00 77 1018.9
20220927030607 47 186 0.0 0.0 0.00 0.00 0.00 75 1018.9
20220927030107 48 186 0.0 0.0 0.00 0.00 0.00 75 1018.9
20220927025606 48 199 0.0 0.0 0.00 0.00 0.00 74 1018.9
20220927025106 48 185 0.0 0.0 0.00 0.00 0.00 74 1018.6
20220927024606 49 188 0.0 0.0 0.00 0.00 0.00 73 1018.6
20220927024106 49 185 0.0 0.0 0.00 0.00 0.00 73 1018.6
20220927023606 49 175 0.0 0.0 0.00 0.00 0.00 72 1018.2
20220927023104 50 189 0.0 0.0 0.00 0.00 0.00 71 1018.2
20220927022603 50 188 0.0 0.0 0.00 0.00 0.00 70 1018.2
20220927022101 50 189 0.0 0.0 0.00 0.00 0.00 69 1018.2
20220927021601 51 185 0.0 0.0 0.00 0.00 0.00 69 1018.2
20220927021100 51 184 0.0 0.0 0.00 0.00 0.00 69 1018.2
20220927020559 52 188 0.0 0.0 0.00 0.00 0.00 67 1017.9
20220927020059 52 183 0.0 0.0 0.00 0.00 0.00 67 1018.2
20220927015559 52 185 0.0 0.0 0.00 0.00 0.00 66 1018.2
20220927015058 53 185 0.0 0.0 0.00 0.00 0.00 66 1018.2
20220927014556 53 183 0.0 0.0 0.00 0.00 0.00 66 1018.2
20220927014055 54 190 0.0 0.0 0.00 0.00 0.00 64 1017.9
20220927013555 54 190 0.0 0.0 0.00 0.00 0.00 62 1017.6
20220927013054 55 186 0.0 0.0 0.00 0.00 0.00 62 1017.9
20220927012552 55 190 0.0 0.0 0.00 0.00 0.00 61 1017.9
20220927012052 56 196 0.0 0.0 0.00 0.00 0.00 60 1017.9
20220927011552 57 184 0.0 0.0 0.00 0.00 0.00 57 1017.6
20220927011053 58 178 0.0 0.0 0.00 0.00 0.00 55 1017.6
20220927010551 59 183 0.0 0.0 0.00 0.00 0.00 55 1017.2
20220927010051 60 201 0.0 0.0 0.00 0.00 0.00 55 1016.9
20220927005549 61 179 0.0 0.0 0.00 0.00 0.00 54 1017.2
20220927005047 62 190 0.0 0.0 0.00 0.00 0.00 53 1017.2
20220927004545 63 188 0.0 0.0 0.00 0.00 0.00 51 1016.9
20220927004045 63 209 0.0 0.0 0.00 0.00 0.00 49 1016.9
20220927003545 64 233 0.0 0.0 0.00 0.00 0.00 48 1016.9
20220927003043 65 209 0.0 0.0 0.00 0.00 0.00 45 1016.5
20220927002542 66 219 0.0 0.0 0.00 0.00 0.00 43 1016.5
20220927002042 67 210 0.0 0.0 0.00 0.00 0.00 43 1016.5
20220927001542 68 201 0.0 0.0 0.00 0.00 0.00 40 1016.5
20220927001040 68 206 0.0 0.0 0.00 0.00 0.00 37 1016.5
20220927000539 69 224 0.0 0.0 0.00 0.00 0.00 35 1016.2
20220927000038 69 296 0.0 0.0 0.00 0.00 0.00 33 1015.9
20220926235538 70 313 0.0 0.0 0.00 0.00 0.00 32 1016.2
20220926235037 70 292 0.0 0.0 0.00 0.00 0.00 32 1016.2
20220926234536 71 351 0.0 0.0 0.00 0.00 0.00 31 1016.2
20220926234035 71 265 0.0 0.0 0.00 0.00 0.00 31 1016.2
20220926233535 71 266 1.0 3.0 0.00 0.00 0.00 31 1015.9
20220926233034 71 20 0.0 3.0 0.00 0.00 0.00 31 1016.2
20220926232533 72 48 1.0 3.0 0.00 0.00 0.00 31 1015.9
20220926232033 72 19 3.0 5.0 0.00 0.00 0.00 31 1015.9
20220926231532 72 349 3.0 5.0 0.00 0.00 0.00 31 1015.5
20220926231030 73 289 0.0 0.0 0.00 0.00 0.00 32 1015.9
20220926230530 73 287 0.0 0.0 0.00 0.00 0.00 31 1015.9
20220926230029 73 183 0.0 0.0 0.00 0.00 0.00 30 1015.9
20220926225530 73 233 4.0 7.0 0.00 0.00 0.00 29 1015.9
20220926225028 73 221 3.0 5.0 0.00 0.00 0.00 29 1015.9
20220926224527 73 41 6.0 10.0 0.00 0.00 0.00 30 1015.5
20220926224027 74 1 4.0 5.0 0.00 0.00 0.00 29 1015.5
20220926223527 74 54 0.0 3.0 0.00 0.00 0.00 28 1015.9
20220926223025 74 55 3.0 5.0 0.00 0.00 0.00 28 1015.9
20220926222524 75 204 0.0 0.0 0.00 0.00 0.00 29 1015.5
20220926222023 75 16 2.0 5.0 0.00 0.00 0.00 29 1015.5
20220926221522 75 262 0.0 3.0 0.00 0.00 0.00 28 1015.5
20220926221022 76 48 2.0 5.0 0.00 0.00 0.00 28 1015.9
20220926220521 76 132 0.0 3.0 0.00 0.00 0.00 27 1015.5
20220926220022 77 192 0.0 3.0 0.00 0.00 0.00 27 1015.5
20220926215520 77 353 9.0 15.0 0.00 0.00 0.00 27 1015.5
20220926215018 78 16 3.0 7.0 0.00 0.00 0.00 27 1015.5
20220926214518 78 36 7.0 12.0 0.00 0.00 0.00 27 1015.5
20220926214016 78 31 3.0 10.0 0.00 0.00 0.00 28 1015.5
20220926213515 78 230 0.0 0.0 0.00 0.00 0.00 28 1015.9
20220926213016 78 233 0.0 0.0 0.00 0.00 0.00 27 1015.5
20220926212514 78 2 2.0 5.0 0.00 0.00 0.00 27 1015.5
20220926212014 78 284 0.0 0.0 0.00 0.00 0.00 28 1015.5
20220926211512 78 173 2.0 5.0 0.00 0.00 0.00 27 1015.5
20220926211012 77 247 2.0 3.0 0.00 0.00 0.00 27 1015.5
20220926210511 77 40 4.0 7.0 0.00 0.00 0.00 27 1015.5
20220926210010 78 233 6.0 12.0 0.00 0.00 0.00 27 1015.9
20220926205510 77 276 3.0 5.0 0.00 0.00 0.00 26 1015.5
20220926205010 77 283 2.0 5.0 0.00 0.00 0.00 28 1015.5
20220926204510 78 172 0.0 3.0 0.00 0.00 0.00 27 1015.5